sensor_id;sensor_type;location;lat;lon;timestamp;temperature;humidity
9425;DHT22;17139;52.140;11.636;2023-08-20T00:01:11;23.10;61.30
9425;DHT22;17139;52.140;11.636;2023-08-20T00:03:40;23.10;61.50
9425;DHT22;17139;52.140;11.636;2023-08-20T00:06:09;23.10;62.00
9425;DHT22;17139;52.140;11.636;2023-08-20T00:08:36;23.00;61.80
9425;DHT22;17139;52.140;11.636;2023-08-20T00:11:05;22.90;61.80
9425;DHT22;17139;52.140;11.636;2023-08-20T00:13:32;23.70;62.70
9425;DHT22;17139;52.140;11.636;2023-08-20T00:15:59;23.40;61.70
9425;DHT22;17139;52.140;11.636;2023-08-20T00:18:27;23.10;61.90
9425;DHT22;17139;52.140;11.636;2023-08-20T00:20:54;22.90;62.10
9425;DHT22;17139;52.140;11.636;2023-08-20T00:23:22;22.80;62.50
9425;DHT22;17139;52.140;11.636;2023-08-20T00:25:50;22.70;62.50
9425;DHT22;17139;52.140;11.636;2023-08-20T00:28:19;23.30;63.70
9425;DHT22;17139;52.140;11.636;2023-08-20T00:30:46;23.10;62.70
9425;DHT22;17139;52.140;11.636;2023-08-20T00:33:14;23.50;63.80
9425;DHT22;17139;52.140;11.636;2023-08-20T00:35:41;23.10;62.80
9425;DHT22;17139;52.140;11.636;2023-08-20T00:38:08;22.80;62.80
9425;DHT22;17139;52.140;11.636;2023-08-20T00:40:36;22.60;63.30
9425;DHT22;17139;52.140;11.636;2023-08-20T00:43:03;22.50;63.50
9425;DHT22;17139;52.140;11.636;2023-08-20T00:45:32;22.40;63.70
9425;DHT22;17139;52.140;11.636;2023-08-20T00:47:59;22.90;64.80
9425;DHT22;17139;52.140;11.636;2023-08-20T00:50:26;22.70;63.50
9425;DHT22;17139;52.140;11.636;2023-08-20T00:52:53;22.60;63.80
9425;DHT22;17139;52.140;11.636;2023-08-20T00:55:20;22.50;64.00
9425;DHT22;17139;52.140;11.636;2023-08-20T00:57:47;22.40;64.70
9425;DHT22;17139;52.140;11.636;2023-08-20T01:00:15;22.30;64.00
9425;DHT22;17139;52.140;11.636;2023-08-20T01:02:43;22.30;64.00
9425;DHT22;17139;52.140;11.636;2023-08-20T01:05:11;22.20;64.00
9425;DHT22;17139;52.140;11.636;2023-08-20T01:07:47;22.20;64.10
9425;DHT22;17139;52.140;11.636;2023-08-20T01:10:19;22.10;64.10
9425;DHT22;17139;52.140;11.636;2023-08-20T01:12:51;22.00;64.30
9425;DHT22;17139;52.140;11.636;2023-08-20T01:15:18;22.80;65.70
9425;DHT22;17139;52.140;11.636;2023-08-20T01:17:48;22.50;64.10
9425;DHT22;17139;52.140;11.636;2023-08-20T01:20:15;22.20;64.30
9425;DHT22;17139;52.140;11.636;2023-08-20T01:22:58;22.10;64.50
9425;DHT22;17139;52.140;11.636;2023-08-20T01:25:37;22.00;64.50
9425;DHT22;17139;52.140;11.636;2023-08-20T01:28:20;21.90;64.70
9425;DHT22;17139;52.140;11.636;2023-08-20T01:30:48;22.70;65.60
9425;DHT22;17139;52.140;11.636;2023-08-20T01:33:16;22.30;64.30
9425;DHT22;17139;52.140;11.636;2023-08-20T01:35:43;22.60;65.90
9425;DHT22;17139;52.140;11.636;2023-08-20T01:38:11;22.40;64.60
9425;DHT22;17139;52.140;11.636;2023-08-20T01:40:38;22.20;64.90
9425;DHT22;17139;52.140;11.636;2023-08-20T01:43:05;22.00;65.00
9425;DHT22;17139;52.140;11.636;2023-08-20T01:45:34;21.90;65.30
9425;DHT22;17139;52.140;11.636;2023-08-20T01:48:01;21.90;65.40
9425;DHT22;17139;52.140;11.636;2023-08-20T01:50:29;21.80;65.30
9425;DHT22;17139;52.140;11.636;2023-08-20T01:52:56;21.80;65.30
9425;DHT22;17139;52.140;11.636;2023-08-20T01:55:23;21.80;65.40
9425;DHT22;17139;52.140;11.636;2023-08-20T01:57:50;22.70;66.70
9425;DHT22;17139;52.140;11.636;2023-08-20T02:00:17;22.30;65.10
9425;DHT22;17139;52.140;11.636;2023-08-20T02:02:46;22.10;65.40
9425;DHT22;17139;52.140;11.636;2023-08-20T02:05:13;21.90;65.50
9425;DHT22;17139;52.140;11.636;2023-08-20T02:07:40;21.80;65.60
9425;DHT22;17139;52.140;11.636;2023-08-20T02:10:07;21.80;65.80
9425;DHT22;17139;52.140;11.636;2023-08-20T02:12:35;22.30;67.10
9425;DHT22;17139;52.140;11.636;2023-08-20T02:15:02;22.10;65.60
9425;DHT22;17139;52.140;11.636;2023-08-20T02:17:29;22.10;66.50
9425;DHT22;17139;52.140;11.636;2023-08-20T02:19:57;22.00;65.90
9425;DHT22;17139;52.140;11.636;2023-08-20T02:22:24;21.90;66.10
9425;DHT22;17139;52.140;11.636;2023-08-20T02:24:51;21.80;66.10
9425;DHT22;17139;52.140;11.636;2023-08-20T02:27:18;21.70;66.20
9425;DHT22;17139;52.140;11.636;2023-08-20T02:29:45;21.70;66.30
9425;DHT22;17139;52.140;11.636;2023-08-20T02:32:12;21.70;66.40
9425;DHT22;17139;52.140;11.636;2023-08-20T02:34:39;22.60;67.60
9425;DHT22;17139;52.140;11.636;2023-08-20T02:37:08;22.30;66.20
9425;DHT22;17139;52.140;11.636;2023-08-20T02:39:35;23.00;67.30
9425;DHT22;17139;52.140;11.636;2023-08-20T02:42:02;22.60;66.20
9425;DHT22;17139;52.140;11.636;2023-08-20T02:44:30;22.30;66.50
9425;DHT22;17139;52.140;11.636;2023-08-20T02:46:57;22.00;66.70
9425;DHT22;17139;52.140;11.636;2023-08-20T02:49:24;21.90;67.10
9425;DHT22;17139;52.140;11.636;2023-08-20T02:51:52;21.80;67.10
9425;DHT22;17139;52.140;11.636;2023-08-20T02:54:21;22.60;68.40
9425;DHT22;17139;52.140;11.636;2023-08-20T02:56:48;22.30;67.10
9425;DHT22;17139;52.140;11.636;2023-08-20T02:59:15;22.60;68.30
9425;DHT22;17139;52.140;11.636;2023-08-20T03:01:42;22.20;67.10
9425;DHT22;17139;52.140;11.636;2023-08-20T03:04:09;21.90;67.30
9425;DHT22;17139;52.140;11.636;2023-08-20T03:06:36;21.80;67.70
9425;DHT22;17139;52.140;11.636;2023-08-20T03:09:03;21.70;67.90
9425;DHT22;17139;52.140;11.636;2023-08-20T03:11:32;21.60;68.10
9425;DHT22;17139;52.140;11.636;2023-08-20T03:13:59;21.70;69.10
9425;DHT22;17139;52.140;11.636;2023-08-20T03:16:26;21.70;68.00
9425;DHT22;17139;52.140;11.636;2023-08-20T03:18:53;21.60;68.00
9425;DHT22;17139;52.140;11.636;2023-08-20T03:21:20;22.40;69.20
9425;DHT22;17139;52.140;11.636;2023-08-20T03:23:47;22.10;67.80
9425;DHT22;17139;52.140;11.636;2023-08-20T03:26:14;21.80;68.00
9425;DHT22;17139;52.140;11.636;2023-08-20T03:28:43;21.70;68.20
9425;DHT22;17139;52.140;11.636;2023-08-20T03:31:10;21.60;68.50
9425;DHT22;17139;52.140;11.636;2023-08-20T03:33:37;21.50;68.40
9425;DHT22;17139;52.140;11.636;2023-08-20T03:36:04;21.50;68.40
9425;DHT22;17139;52.140;11.636;2023-08-20T03:38:31;21.50;68.50
9425;DHT22;17139;52.140;11.636;2023-08-20T03:40:58;21.60;69.30
9425;DHT22;17139;52.140;11.636;2023-08-20T03:43:25;21.60;68.10
9425;DHT22;17139;52.140;11.636;2023-08-20T03:45:53;21.50;68.10
9425;DHT22;17139;52.140;11.636;2023-08-20T03:48:20;21.40;68.20
9425;DHT22;17139;52.140;11.636;2023-08-20T03:50:47;21.30;68.00
9425;DHT22;17139;52.140;11.636;2023-08-20T03:53:15;21.30;68.00
9425;DHT22;17139;52.140;11.636;2023-08-20T03:55:46;21.30;67.90
9425;DHT22;17139;52.140;11.636;2023-08-20T03:58:13;22.10;67.50
9425;DHT22;17139;52.140;11.636;2023-08-20T04:00:40;21.70;66.60
9425;DHT22;17139;52.140;11.636;2023-08-20T04:03:09;21.60;66.80
9425;DHT22;17139;52.140;11.636;2023-08-20T04:05:36;21.40;66.70
9425;DHT22;17139;52.140;11.636;2023-08-20T04:08:03;21.30;66.90
9425;DHT22;17139;52.140;11.636;2023-08-20T04:10:31;21.20;67.10
9425;DHT22;17139;52.140;11.636;2023-08-20T04:12:58;21.00;67.00
9425;DHT22;17139;52.140;11.636;2023-08-20T04:15:25;20.90;67.00
9425;DHT22;17139;52.140;11.636;2023-08-20T04:17:52;20.90;67.80
9425;DHT22;17139;52.140;11.636;2023-08-20T04:20:20;21.50;66.60
9425;DHT22;17139;52.140;11.636;2023-08-20T04:22:48;21.20;66.20
9425;DHT22;17139;52.140;11.636;2023-08-20T04:25:18;21.10;66.70
9425;DHT22;17139;52.140;11.636;2023-08-20T04:27:45;21.00;66.60
9425;DHT22;17139;52.140;11.636;2023-08-20T04:30:12;20.90;66.80
9425;DHT22;17139;52.140;11.636;2023-08-20T04:32:39;20.80;66.80
9425;DHT22;17139;52.140;11.636;2023-08-20T04:35:07;20.80;66.90
9425;DHT22;17139;52.140;11.636;2023-08-20T04:37:36;20.80;66.90
9425;DHT22;17139;52.140;11.636;2023-08-20T04:40:03;20.80;66.80
9425;DHT22;17139;52.140;11.636;2023-08-20T04:42:31;21.60;66.90
9425;DHT22;17139;52.140;11.636;2023-08-20T04:44:58;21.30;65.80
9425;DHT22;17139;52.140;11.636;2023-08-20T04:47:25;21.40;66.30
9425;DHT22;17139;52.140;11.636;2023-08-20T04:49:52;21.20;66.10
9425;DHT22;17139;52.140;11.636;2023-08-20T04:52:19;21.00;66.30
9425;DHT22;17139;52.140;11.636;2023-08-20T04:54:48;20.90;66.50
9425;DHT22;17139;52.140;11.636;2023-08-20T04:57:15;20.90;66.70
9425;DHT22;17139;52.140;11.636;2023-08-20T04:59:42;21.00;66.70
9425;DHT22;17139;52.140;11.636;2023-08-20T05:02:11;20.90;66.50
9425;DHT22;17139;52.140;11.636;2023-08-20T05:04:38;21.80;65.80
9425;DHT22;17139;52.140;11.636;2023-08-20T05:07:05;21.50;65.50
9425;DHT22;17139;52.140;11.636;2023-08-20T05:09:33;22.00;64.90
9425;DHT22;17139;52.140;11.636;2023-08-20T05:12:01;21.70;65.10
9425;DHT22;17139;52.140;11.636;2023-08-20T05:14:28;21.40;65.70
9425;DHT22;17139;52.140;11.636;2023-08-20T05:16:55;21.20;66.30
9425;DHT22;17139;52.140;11.636;2023-08-20T05:19:22;21.20;66.60
9425;DHT22;17139;52.140;11.636;2023-08-20T05:21:49;21.10;66.50
9425;DHT22;17139;52.140;11.636;2023-08-20T05:24:17;21.40;66.70
9425;DHT22;17139;52.140;11.636;2023-08-20T05:26:45;21.30;66.30
9425;DHT22;17139;52.140;11.636;2023-08-20T05:29:14;21.30;66.70
9425;DHT22;17139;52.140;11.636;2023-08-20T05:31:41;21.30;66.60
9425;DHT22;17139;52.140;11.636;2023-08-20T05:34:08;21.30;66.60
9425;DHT22;17139;52.140;11.636;2023-08-20T05:36:35;21.20;66.60
9425;DHT22;17139;52.140;11.636;2023-08-20T05:39:02;21.20;66.60
9425;DHT22;17139;52.140;11.636;2023-08-20T05:41:29;21.20;66.60
9425;DHT22;17139;52.140;11.636;2023-08-20T05:43:56;21.10;66.60
9425;DHT22;17139;52.140;11.636;2023-08-20T05:46:25;21.80;65.50
9425;DHT22;17139;52.140;11.636;2023-08-20T05:48:52;21.50;65.40
9425;DHT22;17139;52.140;11.636;2023-08-20T05:51:19;21.70;65.60
9425;DHT22;17139;52.140;11.636;2023-08-20T05:53:46;21.50;65.50
9425;DHT22;17139;52.140;11.636;2023-08-20T05:56:13;21.40;66.00
9425;DHT22;17139;52.140;11.636;2023-08-20T05:58:40;21.30;66.30
9425;DHT22;17139;52.140;11.636;2023-08-20T06:01:07;21.30;66.40
9425;DHT22;17139;52.140;11.636;2023-08-20T06:03:35;21.40;66.70
9425;DHT22;17139;52.140;11.636;2023-08-20T06:06:02;21.50;66.80
9425;DHT22;17139;52.140;11.636;2023-08-20T06:08:29;21.70;66.80
9425;DHT22;17139;52.140;11.636;2023-08-20T06:10:56;21.80;66.50
9425;DHT22;17139;52.140;11.636;2023-08-20T06:13:23;23.10;63.50
9425;DHT22;17139;52.140;11.636;2023-08-20T06:15:50;22.80;63.80
9425;DHT22;17139;52.140;11.636;2023-08-20T06:18:17;22.60;64.30
9425;DHT22;17139;52.140;11.636;2023-08-20T06:20:45;22.60;64.50
9425;DHT22;17139;52.140;11.636;2023-08-20T06:23:12;22.50;64.40
9425;DHT22;17139;52.140;11.636;2023-08-20T06:25:39;22.40;64.60
9425;DHT22;17139;52.140;11.636;2023-08-20T06:28:06;22.60;63.60
9425;DHT22;17139;52.140;11.636;2023-08-20T06:30:33;22.40;63.80
9425;DHT22;17139;52.140;11.636;2023-08-20T06:33:00;22.20;64.20
9425;DHT22;17139;52.140;11.636;2023-08-20T06:35:27;22.90;62.20
9425;DHT22;17139;52.140;11.636;2023-08-20T06:37:55;22.50;63.70
9425;DHT22;17139;52.140;11.636;2023-08-20T06:40:22;22.10;63.90
9425;DHT22;17139;52.140;11.636;2023-08-20T06:42:49;21.90;64.50
9425;DHT22;17139;52.140;11.636;2023-08-20T06:45:16;22.40;63.70
9425;DHT22;17139;52.140;11.636;2023-08-20T06:47:43;22.50;63.20
9425;DHT22;17139;52.140;11.636;2023-08-20T06:50:10;22.30;63.60
9425;DHT22;17139;52.140;11.636;2023-08-20T06:52:37;22.40;63.40
9425;DHT22;17139;52.140;11.636;2023-08-20T06:55:06;22.20;63.50
9425;DHT22;17139;52.140;11.636;2023-08-20T06:57:33;22.20;63.80
9425;DHT22;17139;52.140;11.636;2023-08-20T07:00:01;22.10;63.80
9425;DHT22;17139;52.140;11.636;2023-08-20T07:02:29;22.10;63.40
9425;DHT22;17139;52.140;11.636;2023-08-20T07:04:56;22.20;63.10
9425;DHT22;17139;52.140;11.636;2023-08-20T07:07:23;22.20;63.20
9425;DHT22;17139;52.140;11.636;2023-08-20T07:09:50;22.20;63.30
9425;DHT22;17139;52.140;11.636;2023-08-20T07:12:19;22.10;63.40
9425;DHT22;17139;52.140;11.636;2023-08-20T07:14:46;22.20;63.20
9425;DHT22;17139;52.140;11.636;2023-08-20T07:17:12;22.20;63.20
9425;DHT22;17139;52.140;11.636;2023-08-20T07:19:39;22.20;63.10
9425;DHT22;17139;52.140;11.636;2023-08-20T07:22:06;22.30;63.00
9425;DHT22;17139;52.140;11.636;2023-08-20T07:24:33;22.30;62.90
9425;DHT22;17139;52.140;11.636;2023-08-20T07:27:01;23.20;59.50
9425;DHT22;17139;52.140;11.636;2023-08-20T07:29:31;23.00;60.80
9425;DHT22;17139;52.140;11.636;2023-08-20T07:31:58;23.30;59.00
9425;DHT22;17139;52.140;11.636;2023-08-20T07:34:28;23.00;60.30
9425;DHT22;17139;52.140;11.636;2023-08-20T07:36:56;22.80;61.20
9425;DHT22;17139;52.140;11.636;2023-08-20T07:39:23;22.60;61.40
9425;DHT22;17139;52.140;11.636;2023-08-20T07:41:50;22.70;61.70
9425;DHT22;17139;52.140;11.636;2023-08-20T07:44:17;22.70;61.70
9425;DHT22;17139;52.140;11.636;2023-08-20T07:46:46;23.50;58.20
9425;DHT22;17139;52.140;11.636;2023-08-20T07:49:13;23.40;59.30
9425;DHT22;17139;52.140;11.636;2023-08-20T07:51:40;23.90;56.70
9425;DHT22;17139;52.140;11.636;2023-08-20T07:54:07;23.50;58.20
9425;DHT22;17139;52.140;11.636;2023-08-20T07:56:34;23.30;59.10
9425;DHT22;17139;52.140;11.636;2023-08-20T07:59:01;23.20;59.50
9425;DHT22;17139;52.140;11.636;2023-08-20T08:01:28;23.10;59.60
9425;DHT22;17139;52.140;11.636;2023-08-20T08:03:56;23.10;59.70
9425;DHT22;17139;52.140;11.636;2023-08-20T08:06:23;23.80;56.50
9425;DHT22;17139;52.140;11.636;2023-08-20T08:08:50;23.50;57.90
9425;DHT22;17139;52.140;11.636;2023-08-20T08:11:17;23.90;56.10
9425;DHT22;17139;52.140;11.636;2023-08-20T08:13:44;24.20;55.20
9425;DHT22;17139;52.140;11.636;2023-08-20T08:16:11;24.00;56.80
9425;DHT22;17139;52.140;11.636;2023-08-20T08:18:38;23.80;57.50
9425;DHT22;17139;52.140;11.636;2023-08-20T08:21:07;23.70;58.00
9425;DHT22;17139;52.140;11.636;2023-08-20T08:23:33;23.60;58.30
9425;DHT22;17139;52.140;11.636;2023-08-20T08:26:01;23.70;58.30
9425;DHT22;17139;52.140;11.636;2023-08-20T08:28:28;23.80;58.40
9425;DHT22;17139;52.140;11.636;2023-08-20T08:30:54;24.50;54.60
9425;DHT22;17139;52.140;11.636;2023-08-20T08:33:21;24.20;56.40
9425;DHT22;17139;52.140;11.636;2023-08-20T08:35:49;24.10;57.10
9425;DHT22;17139;52.140;11.636;2023-08-20T08:38:18;24.00;57.50
9425;DHT22;17139;52.140;11.636;2023-08-20T08:40:45;23.90;57.60
9425;DHT22;17139;52.140;11.636;2023-08-20T08:43:14;24.00;56.80
9425;DHT22;17139;52.140;11.636;2023-08-20T08:45:44;24.00;57.40
9425;DHT22;17139;52.140;11.636;2023-08-20T08:48:12;24.30;55.70
9425;DHT22;17139;52.140;11.636;2023-08-20T08:50:40;24.20;56.60
9425;DHT22;17139;52.140;11.636;2023-08-20T08:53:07;24.20;57.00
9425;DHT22;17139;52.140;11.636;2023-08-20T08:55:36;24.10;57.00
9425;DHT22;17139;52.140;11.636;2023-08-20T08:58:04;24.10;56.80
9425;DHT22;17139;52.140;11.636;2023-08-20T09:00:31;24.10;57.10
9425;DHT22;17139;52.140;11.636;2023-08-20T09:02:58;24.10;57.10
9425;DHT22;17139;52.140;11.636;2023-08-20T09:05:25;24.10;56.70
9425;DHT22;17139;52.140;11.636;2023-08-20T09:07:55;24.70;53.50
9425;DHT22;17139;52.140;11.636;2023-08-20T09:10:25;24.90;53.10
9425;DHT22;17139;52.140;11.636;2023-08-20T09:12:54;24.60;54.90
9425;DHT22;17139;52.140;11.636;2023-08-20T09:15:29;24.50;55.80
9425;DHT22;17139;52.140;11.636;2023-08-20T09:17:56;24.40;56.00
9425;DHT22;17139;52.140;11.636;2023-08-20T09:20:34;24.30;56.20
9425;DHT22;17139;52.140;11.636;2023-08-20T09:23:01;24.40;56.20
9425;DHT22;17139;52.140;11.636;2023-08-20T09:25:28;25.10;52.50
9425;DHT22;17139;52.140;11.636;2023-08-20T09:27:56;24.90;54.50
9425;DHT22;17139;52.140;11.636;2023-08-20T09:30:23;24.80;54.80
9425;DHT22;17139;52.140;11.636;2023-08-20T09:33:03;24.70;55.50
9425;DHT22;17139;52.140;11.636;2023-08-20T09:35:31;25.40;52.00
9425;DHT22;17139;52.140;11.636;2023-08-20T09:38:03;25.10;53.50
9425;DHT22;17139;52.140;11.636;2023-08-20T09:40:30;24.90;54.30
9425;DHT22;17139;52.140;11.636;2023-08-20T09:42:59;25.40;51.60
9425;DHT22;17139;52.140;11.636;2023-08-20T09:45:28;25.20;53.50
9425;DHT22;17139;52.140;11.636;2023-08-20T09:47:56;25.70;51.30
9425;DHT22;17139;52.140;11.636;2023-08-20T09:50:26;25.40;52.90
9425;DHT22;17139;52.140;11.636;2023-08-20T09:52:57;25.90;50.60
9425;DHT22;17139;52.140;11.636;2023-08-20T09:55:30;25.60;52.30
9425;DHT22;17139;52.140;11.636;2023-08-20T09:58:01;25.40;53.10
9425;DHT22;17139;52.140;11.636;2023-08-20T10:00:29;25.20;53.60
9425;DHT22;17139;52.140;11.636;2023-08-20T10:02:57;25.20;53.80
9425;DHT22;17139;52.140;11.636;2023-08-20T10:05:25;25.20;54.10
9425;DHT22;17139;52.140;11.636;2023-08-20T10:07:52;25.90;50.60
9425;DHT22;17139;52.140;11.636;2023-08-20T10:10:21;25.70;52.40
9425;DHT22;17139;52.140;11.636;2023-08-20T10:12:48;25.60;53.00
9425;DHT22;17139;52.140;11.636;2023-08-20T10:15:17;25.50;53.30
9425;DHT22;17139;52.140;11.636;2023-08-20T10:17:44;25.40;53.40
9425;DHT22;17139;52.140;11.636;2023-08-20T10:20:14;25.50;53.50
9425;DHT22;17139;52.140;11.636;2023-08-20T10:22:43;25.90;50.20
9425;DHT22;17139;52.140;11.636;2023-08-20T10:25:12;25.70;52.00
9425;DHT22;17139;52.140;11.636;2023-08-20T10:27:40;25.60;52.60
9425;DHT22;17139;52.140;11.636;2023-08-20T10:30:09;25.60;52.90
9425;DHT22;17139;52.140;11.636;2023-08-20T10:32:47;25.50;52.80
9425;DHT22;17139;52.140;11.636;2023-08-20T10:35:23;25.50;53.20
9425;DHT22;17139;52.140;11.636;2023-08-20T10:38:06;25.40;52.80
9425;DHT22;17139;52.140;11.636;2023-08-20T10:40:51;25.40;53.20
9425;DHT22;17139;52.140;11.636;2023-08-20T10:43:29;26.00;50.70
9425;DHT22;17139;52.140;11.636;2023-08-20T10:46:14;25.80;52.00
9425;DHT22;17139;52.140;11.636;2023-08-20T10:48:46;26.00;50.60
9425;DHT22;17139;52.140;11.636;2023-08-20T10:51:15;25.80;51.80
9425;DHT22;17139;52.140;11.636;2023-08-20T10:53:48;25.80;52.90
9425;DHT22;17139;52.140;11.636;2023-08-20T10:56:16;25.80;52.50
9425;DHT22;17139;52.140;11.636;2023-08-20T10:58:45;25.70;52.40
9425;DHT22;17139;52.140;11.636;2023-08-20T11:01:18;25.70;52.60
9425;DHT22;17139;52.140;11.636;2023-08-20T11:03:48;26.30;48.50
9425;DHT22;17139;52.140;11.636;2023-08-20T11:06:15;26.10;50.50
9425;DHT22;17139;52.140;11.636;2023-08-20T11:08:43;26.30;48.70
9425;DHT22;17139;52.140;11.636;2023-08-20T11:11:10;26.10;50.50
9425;DHT22;17139;52.140;11.636;2023-08-20T11:13:38;26.00;51.10
9425;DHT22;17139;52.140;11.636;2023-08-20T11:16:06;25.90;51.50
9425;DHT22;17139;52.140;11.636;2023-08-20T11:18:34;25.90;51.60
9425;DHT22;17139;52.140;11.636;2023-08-20T11:21:03;26.00;52.00
9425;DHT22;17139;52.140;11.636;2023-08-20T11:23:31;26.50;48.10
9425;DHT22;17139;52.140;11.636;2023-08-20T11:25:58;26.30;50.00
9425;DHT22;17139;52.140;11.636;2023-08-20T11:28:26;26.50;48.20
9425;DHT22;17139;52.140;11.636;2023-08-20T11:30:54;26.30;49.90
9425;DHT22;17139;52.140;11.636;2023-08-20T11:33:21;26.30;49.30
9425;DHT22;17139;52.140;11.636;2023-08-20T11:35:49;26.30;50.50
9425;DHT22;17139;52.140;11.636;2023-08-20T11:38:19;26.20;50.80
9425;DHT22;17139;52.140;11.636;2023-08-20T11:40:46;26.50;49.10
9425;DHT22;17139;52.140;11.636;2023-08-20T11:43:13;26.40;50.30
9425;DHT22;17139;52.140;11.636;2023-08-20T11:45:49;26.40;50.70
9425;DHT22;17139;52.140;11.636;2023-08-20T11:48:17;26.40;50.70
9425;DHT22;17139;52.140;11.636;2023-08-20T11:50:44;26.40;51.00
9425;DHT22;17139;52.140;11.636;2023-08-20T11:53:11;26.40;51.00
9425;DHT22;17139;52.140;11.636;2023-08-20T11:55:40;26.40;51.20
9425;DHT22;17139;52.140;11.636;2023-08-20T11:58:11;26.40;50.90
9425;DHT22;17139;52.140;11.636;2023-08-20T12:00:38;26.40;50.60
9425;DHT22;17139;52.140;11.636;2023-08-20T12:03:05;26.50;51.00
9425;DHT22;17139;52.140;11.636;2023-08-20T12:05:33;26.50;51.00
9425;DHT22;17139;52.140;11.636;2023-08-20T12:08:02;26.50;51.00
9425;DHT22;17139;52.140;11.636;2023-08-20T12:10:30;26.50;51.00
9425;DHT22;17139;52.140;11.636;2023-08-20T12:12:59;26.40;51.00
9425;DHT22;17139;52.140;11.636;2023-08-20T12:15:26;26.40;51.20
9425;DHT22;17139;52.140;11.636;2023-08-20T12:18:00;26.50;51.00
9425;DHT22;17139;52.140;11.636;2023-08-20T12:20:30;26.70;51.10
9425;DHT22;17139;52.140;11.636;2023-08-20T12:23:03;26.80;51.20
9425;DHT22;17139;52.140;11.636;2023-08-20T12:25:31;26.80;50.90
9425;DHT22;17139;52.140;11.636;2023-08-20T12:28:01;26.90;51.00
9425;DHT22;17139;52.140;11.636;2023-08-20T12:30:29;26.90;51.00
9425;DHT22;17139;52.140;11.636;2023-08-20T12:32:57;27.00;51.10
9425;DHT22;17139;52.140;11.636;2023-08-20T12:35:24;27.20;50.80
9425;DHT22;17139;52.140;11.636;2023-08-20T12:37:51;27.40;50.60
9425;DHT22;17139;52.140;11.636;2023-08-20T12:40:18;27.60;49.90
9425;DHT22;17139;52.140;11.636;2023-08-20T12:42:45;27.80;50.10
9425;DHT22;17139;52.140;11.636;2023-08-20T12:45:13;27.90;49.90
9425;DHT22;17139;52.140;11.636;2023-08-20T12:47:40;28.40;46.50
9425;DHT22;17139;52.140;11.636;2023-08-20T12:50:08;28.10;48.40
9425;DHT22;17139;52.140;11.636;2023-08-20T12:52:36;27.90;49.10
9425;DHT22;17139;52.140;11.636;2023-08-20T12:55:04;27.80;49.60
9425;DHT22;17139;52.140;11.636;2023-08-20T12:57:34;27.60;49.80
9425;DHT22;17139;52.140;11.636;2023-08-20T13:00:02;27.50;50.10
9425;DHT22;17139;52.140;11.636;2023-08-20T13:02:35;28.10;46.40
9425;DHT22;17139;52.140;11.636;2023-08-20T13:05:03;28.30;45.70
9425;DHT22;17139;52.140;11.636;2023-08-20T13:07:31;28.50;45.10
9425;DHT22;17139;52.140;11.636;2023-08-20T13:09:58;28.10;47.30
9425;DHT22;17139;52.140;11.636;2023-08-20T13:12:27;27.80;48.40
9425;DHT22;17139;52.140;11.636;2023-08-20T13:14:55;27.60;48.80
9425;DHT22;17139;52.140;11.636;2023-08-20T13:17:23;27.40;50.00
9425;DHT22;17139;52.140;11.636;2023-08-20T13:19:51;27.40;49.60
9425;DHT22;17139;52.140;11.636;2023-08-20T13:22:18;27.40;49.70
9425;DHT22;17139;52.140;11.636;2023-08-20T13:24:45;27.80;47.50
9425;DHT22;17139;52.140;11.636;2023-08-20T13:27:12;28.10;46.50
9425;DHT22;17139;52.140;11.636;2023-08-20T13:29:40;28.10;46.50
9425;DHT22;17139;52.140;11.636;2023-08-20T13:32:07;27.80;48.10
9425;DHT22;17139;52.140;11.636;2023-08-20T13:34:34;27.60;48.80
9425;DHT22;17139;52.140;11.636;2023-08-20T13:37:02;27.60;49.00
9425;DHT22;17139;52.140;11.636;2023-08-20T13:39:30;27.70;48.20
9425;DHT22;17139;52.140;11.636;2023-08-20T13:41:57;27.70;49.00
9425;DHT22;17139;52.140;11.636;2023-08-20T13:44:24;27.70;49.10
9425;DHT22;17139;52.140;11.636;2023-08-20T13:46:51;28.30;46.10
9425;DHT22;17139;52.140;11.636;2023-08-20T13:49:17;27.90;47.70
9425;DHT22;17139;52.140;11.636;2023-08-20T13:51:44;27.80;48.60
9425;DHT22;17139;52.140;11.636;2023-08-20T13:54:13;27.70;48.80
9425;DHT22;17139;52.140;11.636;2023-08-20T13:56:40;27.70;49.00
9425;DHT22;17139;52.140;11.636;2023-08-20T13:59:09;27.70;49.40
9425;DHT22;17139;52.140;11.636;2023-08-20T14:01:36;27.70;49.50
9425;DHT22;17139;52.140;11.636;2023-08-20T14:04:03;27.60;49.30
9425;DHT22;17139;52.140;11.636;2023-08-20T14:06:30;28.10;46.50
9425;DHT22;17139;52.140;11.636;2023-08-20T14:08:57;27.80;47.90
9425;DHT22;17139;52.140;11.636;2023-08-20T14:11:26;27.60;48.60
9425;DHT22;17139;52.140;11.636;2023-08-20T14:13:53;27.60;49.00
9425;DHT22;17139;52.140;11.636;2023-08-20T14:16:20;27.50;49.10
9425;DHT22;17139;52.140;11.636;2023-08-20T14:18:47;27.50;49.40
9425;DHT22;17139;52.140;11.636;2023-08-20T14:21:14;27.50;49.40
9425;DHT22;17139;52.140;11.636;2023-08-20T14:23:41;27.40;49.50
9425;DHT22;17139;52.140;11.636;2023-08-20T14:26:08;28.10;47.00
9425;DHT22;17139;52.140;11.636;2023-08-20T14:28:36;27.80;48.10
9425;DHT22;17139;52.140;11.636;2023-08-20T14:31:06;27.70;48.50
9425;DHT22;17139;52.140;11.636;2023-08-20T14:33:33;27.60;48.90
9425;DHT22;17139;52.140;11.636;2023-08-20T14:36:00;27.60;49.30
9425;DHT22;17139;52.140;11.636;2023-08-20T14:38:28;27.60;49.40
9425;DHT22;17139;52.140;11.636;2023-08-20T14:40:59;27.60;49.60
9425;DHT22;17139;52.140;11.636;2023-08-20T14:43:26;27.70;49.30
9425;DHT22;17139;52.140;11.636;2023-08-20T14:45:55;28.30;46.80
9425;DHT22;17139;52.140;11.636;2023-08-20T14:48:22;28.10;48.00
9425;DHT22;17139;52.140;11.636;2023-08-20T14:50:49;28.00;48.40
9425;DHT22;17139;52.140;11.636;2023-08-20T14:53:16;27.90;48.70
9425;DHT22;17139;52.140;11.636;2023-08-20T14:55:43;27.80;48.80
9425;DHT22;17139;52.140;11.636;2023-08-20T14:58:10;27.80;49.20
9425;DHT22;17139;52.140;11.636;2023-08-20T15:00:38;27.80;49.20
9425;DHT22;17139;52.140;11.636;2023-08-20T15:03:07;27.70;49.40
9425;DHT22;17139;52.140;11.636;2023-08-20T15:05:34;28.20;47.10
9425;DHT22;17139;52.140;11.636;2023-08-20T15:08:01;27.90;48.20
9425;DHT22;17139;52.140;11.636;2023-08-20T15:10:28;27.70;48.60
9425;DHT22;17139;52.140;11.636;2023-08-20T15:12:55;27.60;49.00
9425;DHT22;17139;52.140;11.636;2023-08-20T15:15:22;27.60;49.30
9425;DHT22;17139;52.140;11.636;2023-08-20T15:17:49;27.60;49.40
9425;DHT22;17139;52.140;11.636;2023-08-20T15:20:20;28.30;47.50
9425;DHT22;17139;52.140;11.636;2023-08-20T15:22:47;28.10;48.20
9425;DHT22;17139;52.140;11.636;2023-08-20T15:25:14;28.30;47.40
9425;DHT22;17139;52.140;11.636;2023-08-20T15:27:41;28.00;48.10
9425;DHT22;17139;52.140;11.636;2023-08-20T15:30:09;27.80;48.50
9425;DHT22;17139;52.140;11.636;2023-08-20T15:32:36;27.70;48.80
9425;DHT22;17139;52.140;11.636;2023-08-20T15:35:03;27.70;49.20